createdAt,value
2023-02-15T00:02:26.749Z,99701.38
2023-02-15T00:04:58.541Z,99713.63
2023-02-15T00:07:29.891Z,99706.66
2023-02-15T00:10:01.027Z,99698.97
2023-02-15T00:12:33.818Z,99690.81
2023-02-15T00:15:04.856Z,99685.38
2023-02-15T00:17:36.038Z,99705.50
2023-02-15T00:20:08.316Z,99716.56
2023-02-15T00:22:39.938Z,99707.56
2023-02-15T00:25:10.922Z,99708.50
2023-02-15T00:27:42.062Z,99698.81
2023-02-15T00:30:13.558Z,99699.22
2023-02-15T00:32:44.708Z,99700.81
2023-02-15T00:35:15.842Z,99691.09
2023-02-15T00:37:47.062Z,99690.53
2023-02-15T00:40:18.502Z,99694.00
2023-02-15T00:42:49.233Z,99701.53
2023-02-15T00:45:20.345Z,99702.56
2023-02-15T00:47:50.874Z,99707.31
2023-02-15T00:50:23.828Z,99696.72
2023-02-15T00:52:55.478Z,99697.09
2023-02-15T00:55:26.862Z,99695.81
2023-02-15T00:57:57.810Z,99688.06
2023-02-15T01:00:28.928Z,99710.78
2023-02-15T01:03:00.967Z,99710.97
2023-02-15T01:05:32.552Z,99712.63
2023-02-15T01:08:04.216Z,99714.06
2023-02-15T01:10:36.242Z,99709.06
2023-02-15T01:13:07.831Z,99704.31
2023-02-15T01:15:39.510Z,99705.94
2023-02-15T01:18:10.989Z,99699.16
2023-02-15T01:20:43.591Z,99711.81
2023-02-15T01:23:14.580Z,99713.91
2023-02-15T01:25:45.284Z,99717.38
2023-02-15T01:28:16.691Z,99702.84
2023-02-15T01:30:47.816Z,99700.91
2023-02-15T01:33:20.856Z,99702.25
2023-02-15T01:35:52.120Z,99714.72
2023-02-15T01:38:22.757Z,99717.09
2023-02-15T01:41:17.416Z,99708.69
2023-02-15T01:43:51.391Z,99703.03
2023-02-15T01:46:27.930Z,99707.50
2023-02-15T01:49:06.989Z,99703.44
2023-02-15T01:51:40.014Z,99703.84
2023-02-15T01:54:27.069Z,99691.63
2023-02-15T01:57:01.593Z,99711.63
2023-02-15T01:59:35.508Z,99714.91
2023-02-15T02:02:09.093Z,99717.03
2023-02-15T02:04:52.069Z,99697.31
2023-02-15T02:07:25.361Z,99721.47
2023-02-15T02:09:56.840Z,99717.25
2023-02-15T02:12:28.838Z,99720.44
2023-02-15T02:15:00.334Z,99719.97
2023-02-15T02:17:40.128Z,99734.06
2023-02-15T02:20:39.096Z,99730.50
2023-02-15T02:23:28.524Z,99734.34
2023-02-15T02:26:36.247Z,99732.94
2023-02-15T02:29:22.279Z,99726.94
2023-02-15T02:32:25.441Z,99744.03
2023-02-15T02:35:36.789Z,99718.50
2023-02-15T02:38:16.934Z,99722.78
2023-02-15T02:41:07.020Z,99716.06
2023-02-15T02:44:16.584Z,99738.78
2023-02-15T02:46:57.962Z,99750.03
2023-02-15T02:49:38.304Z,99762.31
2023-02-15T02:52:30.464Z,99759.56
2023-02-15T02:55:02.666Z,99753.06
2023-02-15T02:57:34.610Z,99756.13
2023-02-15T03:00:10.891Z,99748.44
2023-02-15T03:02:44.879Z,99740.16
2023-02-15T03:05:19.503Z,99749.44
2023-02-15T03:07:53.525Z,99726.34
2023-02-15T03:10:26.217Z,99736.47
2023-02-15T03:12:57.824Z,99729.34
2023-02-15T03:15:53.300Z,99718.34
2023-02-15T03:18:30.170Z,99750.91
2023-02-15T03:21:05.154Z,99735.69
2023-02-15T03:23:37.640Z,99740.09
2023-02-15T03:26:11.216Z,99748.16
2023-02-15T03:28:48.573Z,99766.56
2023-02-15T03:31:21.224Z,99744.25
2023-02-15T03:34:03.834Z,99762.31
2023-02-15T03:36:40.367Z,99748.91
2023-02-15T03:39:23.406Z,99761.03
2023-02-15T03:42:07.155Z,99738.69
2023-02-15T03:45:01.910Z,99762.56
2023-02-15T03:47:41.297Z,99761.69
2023-02-15T03:50:40.555Z,99754.84
2023-02-15T03:53:15.550Z,99758.19
2023-02-15T03:55:50.584Z,99757.13
2023-02-15T03:58:39.704Z,99754.81
2023-02-15T04:02:00.762Z,99751.66
2023-02-15T04:04:45.060Z,99750.69
2023-02-15T04:07:16.696Z,99744.56
2023-02-15T04:10:05.432Z,99758.19
2023-02-15T04:12:37.140Z,99750.59
2023-02-15T04:15:27.149Z,99728.41
2023-02-15T04:18:01.298Z,99758.91
2023-02-15T04:20:50.812Z,99726.75
2023-02-15T04:23:39.556Z,99750.19
2023-02-15T04:26:11.555Z,99754.47
2023-02-15T04:28:42.850Z,99752.94
2023-02-15T04:31:14.055Z,99736.69
2023-02-15T04:33:46.342Z,99740.56
2023-02-15T04:36:17.655Z,99744.78
2023-02-15T04:38:48.682Z,99730.78
2023-02-15T04:41:19.707Z,99734.16
2023-02-15T04:43:50.869Z,99743.53
2023-02-15T04:46:22.273Z,99723.56
2023-02-15T04:48:53.768Z,99751.22
2023-02-15T04:51:24.715Z,99741.53
2023-02-15T04:53:55.694Z,99730.66
2023-02-15T04:56:27.056Z,99729.53
2023-02-15T04:58:58.346Z,99742.31
2023-02-15T05:01:29.701Z,99739.94
2023-02-15T05:04:00.981Z,99749.63
2023-02-15T05:06:32.446Z,99736.09
2023-02-15T05:09:03.954Z,99743.19
2023-02-15T05:11:35.540Z,99736.81
2023-02-15T05:14:06.969Z,99759.22
2023-02-15T05:16:38.810Z,99768.38
2023-02-15T05:19:09.900Z,99751.09
2023-02-15T05:21:40.956Z,99751.63
2023-02-15T05:24:29.894Z,99754.84
2023-02-15T05:27:20.126Z,99744.31
2023-02-15T05:29:51.828Z,99752.59
2023-02-15T05:32:22.537Z,99747.34
2023-02-15T05:34:53.526Z,99754.56
2023-02-15T05:37:24.644Z,99752.63
2023-02-15T05:39:56.029Z,99741.63
2023-02-15T05:42:27.012Z,99761.56
2023-02-15T05:44:58.311Z,99752.63
2023-02-15T05:47:29.560Z,99756.44
2023-02-15T05:50:00.569Z,99754.44
2023-02-15T05:52:33.420Z,99742.78
2023-02-15T05:55:05.141Z,99754.56
2023-02-15T05:57:36.354Z,99766.84
2023-02-15T06:00:08.438Z,99769.06
2023-02-15T06:02:42.685Z,99779.59
2023-02-15T06:05:13.954Z,99779.56
2023-02-15T06:07:49.629Z,99782.44
2023-02-15T06:10:20.798Z,99775.19
2023-02-15T06:12:52.083Z,99779.84
2023-02-15T06:15:23.330Z,99786.66
2023-02-15T06:17:54.836Z,99789.56
2023-02-15T06:20:25.778Z,99810.25
2023-02-15T06:22:56.732Z,99813.69
2023-02-15T06:25:28.032Z,99824.13
2023-02-15T06:28:00.144Z,99822.31
2023-02-15T06:30:31.405Z,99833.09
2023-02-15T06:33:02.480Z,99845.97
2023-02-15T06:35:33.519Z,99847.28
2023-02-15T06:38:05.049Z,99843.28
2023-02-15T06:40:36.225Z,99842.50
2023-02-15T06:43:07.376Z,99850.75
2023-02-15T06:45:38.429Z,99839.94
2023-02-15T06:48:10.556Z,99836.41
2023-02-15T06:50:41.766Z,99839.19
2023-02-15T06:53:13.198Z,99854.81
2023-02-15T06:55:47.256Z,99862.88
2023-02-15T06:58:18.347Z,99868.97
2023-02-15T07:00:49.404Z,99854.38
2023-02-15T07:03:20.727Z,99876.56
2023-02-15T07:05:52.208Z,99855.81
2023-02-15T07:08:23.398Z,99863.84
2023-02-15T07:10:55.066Z,99871.06
2023-02-15T07:13:26.196Z,99891.47
2023-02-15T07:15:57.391Z,99881.66
2023-02-15T07:18:31.099Z,99878.94
2023-02-15T07:21:02.213Z,99883.09
2023-02-15T07:23:33.397Z,99872.16
2023-02-15T07:26:08.898Z,99880.03
2023-02-15T07:28:40.884Z,99879.41
2023-02-15T07:31:12.210Z,99882.94
2023-02-15T07:33:43.070Z,99897.56
2023-02-15T07:36:14.622Z,99906.41
2023-02-15T07:38:51.747Z,99908.94
2023-02-15T07:41:23.391Z,99912.16
2023-02-15T07:43:54.886Z,99913.84
2023-02-15T07:46:34.616Z,99911.31
2023-02-15T07:49:06.243Z,99926.38
2023-02-15T07:51:37.615Z,99922.88
2023-02-15T07:54:08.838Z,99934.59
2023-02-15T07:56:39.828Z,99933.88
2023-02-15T07:59:11.561Z,99938.94
2023-02-15T08:01:43.202Z,99952.84
2023-02-15T08:04:14.526Z,99957.06
2023-02-15T08:06:45.597Z,99963.34
2023-02-15T08:09:16.691Z,99962.72
2023-02-15T08:11:48.213Z,99964.56
2023-02-15T08:14:25.681Z,99969.25
2023-02-15T08:16:58.727Z,99981.16
2023-02-15T08:19:31.997Z,99986.63
2023-02-15T08:22:06.475Z,99977.34
2023-02-15T08:24:40.091Z,99983.59
2023-02-15T08:27:13.250Z,99986.88
2023-02-15T08:29:45.445Z,99985.63
2023-02-15T08:32:16.730Z,99977.25
2023-02-15T08:34:47.903Z,99975.47
2023-02-15T08:37:18.905Z,99970.78
2023-02-15T08:39:49.837Z,99988.28
2023-02-15T08:42:23.164Z,99989.88
2023-02-15T08:44:54.200Z,99986.63
2023-02-15T08:47:25.231Z,99992.28
2023-02-15T08:49:56.537Z,99995.94
2023-02-15T08:52:28.059Z,100005.25
2023-02-15T08:54:58.996Z,99998.06
2023-02-15T08:57:30.919Z,100004.00
2023-02-15T09:00:01.266Z,100007.91
2023-02-15T09:02:33.588Z,100012.13
2023-02-15T09:05:05.349Z,100009.38
2023-02-15T09:07:36.698Z,100009.53
2023-02-15T09:10:08.594Z,100022.78
2023-02-15T09:12:39.490Z,100034.41
2023-02-15T09:15:10.851Z,100038.59
2023-02-15T09:17:41.839Z,100023.72
2023-02-15T09:20:13.342Z,100041.47
2023-02-15T09:22:44.308Z,100033.69
2023-02-15T09:25:16.155Z,100030.81
2023-02-15T09:27:47.140Z,100032.75
2023-02-15T09:30:18.169Z,100036.34
2023-02-15T09:32:49.988Z,100037.09
2023-02-15T09:35:21.162Z,100035.69
2023-02-15T09:37:52.386Z,100039.34
2023-02-15T09:40:23.791Z,100044.47
2023-02-15T09:43:39.407Z,100046.78
2023-02-15T09:46:23.782Z,100053.56
2023-02-15T09:49:02.557Z,100055.06
2023-02-15T09:51:48.713Z,100051.47
2023-02-15T09:54:29.300Z,100056.59
2023-02-15T09:57:08.414Z,100038.84
2023-02-15T10:00:19.790Z,100063.78
2023-02-15T10:03:06.827Z,100051.38
2023-02-15T10:05:59.556Z,100061.66
2023-02-15T10:08:51.537Z,100062.78
2023-02-15T10:11:44.015Z,100064.00
2023-02-15T10:14:43.192Z,100063.00
2023-02-15T10:17:32.297Z,100052.72
2023-02-15T10:20:32.536Z,100059.38
2023-02-15T10:23:06.746Z,100057.75
2023-02-15T10:26:05.367Z,100058.78
2023-02-15T10:28:39.749Z,100067.66
2023-02-15T10:31:18.506Z,100062.81
2023-02-15T10:33:50.036Z,100038.22
2023-02-15T10:36:38.138Z,100060.19
2023-02-15T10:39:26.931Z,100058.06
2023-02-15T10:42:37.966Z,100059.09
2023-02-15T10:45:12.222Z,100068.16
2023-02-15T10:47:55.222Z,100064.44
2023-02-15T10:50:33.639Z,100067.88
2023-02-15T10:53:17.593Z,100073.91
2023-02-15T10:56:15.366Z,100071.59
2023-02-15T10:59:07.724Z,100077.13
2023-02-15T11:01:57.085Z,100064.66
2023-02-15T11:04:43.539Z,100073.41
2023-02-15T11:07:29.401Z,100075.22
2023-02-15T11:10:46.367Z,100069.78
2023-02-15T11:13:22.214Z,100086.19
2023-02-15T11:16:08.646Z,100088.91
2023-02-15T11:18:45.044Z,100064.69
2023-02-15T11:21:54.355Z,100083.47
2023-02-15T11:24:30.009Z,100075.28
2023-02-15T11:27:23.692Z,100075.22
2023-02-15T11:29:57.942Z,100075.31
2023-02-15T11:32:42.205Z,100058.69
2023-02-15T11:35:16.380Z,100068.88
2023-02-15T11:38:18.025Z,100084.78
2023-02-15T11:41:01.501Z,100069.63
2023-02-15T11:44:21.854Z,100078.84
2023-02-15T11:46:53.953Z,100084.56
2023-02-15T11:49:35.111Z,100083.88
2023-02-15T11:52:10.581Z,100092.53
2023-02-15T11:54:54.108Z,100087.72
2023-02-15T11:57:40.652Z,100090.50
2023-02-15T12:00:18.954Z,100091.72
2023-02-15T12:02:53.675Z,100093.81
2023-02-15T12:05:27.012Z,100091.50
2023-02-15T12:08:19.995Z,100090.22
2023-02-15T12:11:01.092Z,100097.50
2023-02-15T12:13:32.672Z,100091.22
2023-02-15T12:16:09.949Z,100092.03
2023-02-15T12:18:49.902Z,100088.22
2023-02-15T12:21:44.063Z,100092.94
2023-02-15T12:24:48.689Z,100100.91
2023-02-15T12:27:46.404Z,100105.84
2023-02-15T12:30:28.679Z,100110.56
2023-02-15T12:33:02.781Z,100107.91
2023-02-15T12:35:36.779Z,100116.50
2023-02-15T12:38:13.783Z,100123.63
2023-02-15T12:40:45.939Z,100096.47
2023-02-15T12:43:36.813Z,100114.00
2023-02-15T12:46:24.759Z,100118.50
2023-02-15T12:49:22.620Z,100122.44
2023-02-15T12:51:58.378Z,100117.91
2023-02-15T12:54:44.366Z,100126.78
2023-02-15T12:57:23.991Z,100125.78
2023-02-15T13:00:03.197Z,100119.88
2023-02-15T13:02:45.044Z,100117.44
2023-02-15T13:05:26.101Z,100115.91
2023-02-15T13:08:05.792Z,100126.13
2023-02-15T13:11:04.069Z,100122.09
2023-02-15T13:13:37.491Z,100124.22
2023-02-15T13:16:14.673Z,100115.03
2023-02-15T13:18:50.295Z,100102.19
2023-02-15T13:21:31.341Z,100122.22
2023-02-15T13:24:10.133Z,100123.06
2023-02-15T13:26:43.143Z,100123.41
2023-02-15T13:29:25.807Z,100120.50
2023-02-15T13:31:58.289Z,100122.22
2023-02-15T13:34:36.838Z,100120.50
2023-02-15T13:37:35.081Z,100111.25
2023-02-15T13:40:20.925Z,100105.38
2023-02-15T13:43:22.171Z,100104.59
2023-02-15T13:46:08.611Z,100100.66
2023-02-15T13:48:50.781Z,100106.66
2023-02-15T13:51:46.472Z,100086.69
2023-02-15T13:54:46.068Z,100103.88
2023-02-15T13:57:41.846Z,100099.28
2023-02-15T14:00:24.568Z,100101.97
2023-02-15T14:03:04.432Z,100098.75
2023-02-15T14:05:53.402Z,100095.97
2023-02-15T14:08:42.733Z,100099.50
2023-02-15T14:11:35.251Z,100096.19
2023-02-15T14:14:59.642Z,100099.28
2023-02-15T14:17:43.044Z,100092.56
2023-02-15T14:20:39.963Z,100099.56
2023-02-15T14:23:26.307Z,100097.19
2023-02-15T14:26:17.784Z,100096.19
2023-02-15T14:29:06.671Z,100111.38
2023-02-15T14:31:42.299Z,100106.56
2023-02-15T14:34:27.109Z,100105.97
2023-02-15T14:36:59.067Z,100107.41
2023-02-15T14:39:51.028Z,100107.50
2023-02-15T14:42:35.999Z,100102.19
2023-02-15T14:45:26.356Z,100097.53
2023-02-15T14:48:12.449Z,100108.44
2023-02-15T14:50:48.568Z,100114.00
2023-02-15T14:53:28.672Z,100122.25
2023-02-15T14:56:23.106Z,100122.47
2023-02-15T14:58:58.742Z,100119.66
2023-02-15T15:01:33.833Z,100110.72
2023-02-15T15:04:16.198Z,100103.13
2023-02-15T15:06:47.696Z,100121.50
2023-02-15T15:09:45.304Z,100128.94
2023-02-15T15:12:25.334Z,100126.19
2023-02-15T15:14:57.121Z,100126.84
2023-02-15T15:17:40.461Z,100149.28
2023-02-15T15:20:46.790Z,100133.38
2023-02-15T15:23:18.351Z,100139.69
2023-02-15T15:25:56.578Z,100126.97
2023-02-15T15:28:36.908Z,100125.06
2023-02-15T15:31:08.222Z,100125.53
2023-02-15T15:33:50.776Z,100102.97
2023-02-15T15:36:50.459Z,100111.97
2023-02-15T15:39:43.375Z,100103.44
2023-02-15T15:42:33.819Z,100105.03
2023-02-15T15:45:45.795Z,100105.41
2023-02-15T15:48:40.372Z,100103.41
2023-02-15T15:51:17.725Z,100099.88
2023-02-15T15:53:52.885Z,100106.81
2023-02-15T15:56:35.618Z,100102.50
2023-02-15T15:59:14.992Z,100109.50
2023-02-15T16:01:47.820Z,100108.44
2023-02-15T16:04:51.273Z,100101.13
2023-02-15T16:07:22.555Z,100094.59
2023-02-15T16:10:01.805Z,100086.72
2023-02-15T16:12:37.345Z,100103.78
2023-02-15T16:15:19.270Z,100120.78
2023-02-15T16:17:58.815Z,100117.03
2023-02-15T16:20:34.296Z,100118.59
2023-02-15T16:23:05.278Z,100120.69
2023-02-15T16:25:58.863Z,100117.44
2023-02-15T16:28:30.401Z,100112.34
2023-02-15T16:31:15.868Z,100131.88
2023-02-15T16:33:47.989Z,100136.66
2023-02-15T16:36:25.651Z,100141.59
2023-02-15T16:38:59.917Z,100143.47
2023-02-15T16:41:32.869Z,100139.88
2023-02-15T16:44:15.730Z,100117.44
2023-02-15T16:46:56.414Z,100117.09
2023-02-15T16:49:30.081Z,100147.66
2023-02-15T16:52:09.613Z,100144.75
2023-02-15T16:54:40.716Z,100139.22
2023-02-15T16:57:35.840Z,100150.13
2023-02-15T17:00:18.119Z,100157.38
2023-02-15T17:02:57.887Z,100161.97
2023-02-15T17:05:43.536Z,100175.56
2023-02-15T17:08:27.112Z,100164.94
2023-02-15T17:11:23.731Z,100160.59
2023-02-15T17:14:13.367Z,100158.84
2023-02-15T17:16:51.420Z,100169.06
2023-02-15T17:19:31.694Z,100159.19
2023-02-15T17:22:05.970Z,100176.44
2023-02-15T17:24:46.129Z,100175.25
2023-02-15T17:27:20.368Z,100180.38
2023-02-15T17:30:02.573Z,100172.06
2023-02-15T17:32:36.814Z,100183.53
2023-02-15T17:35:27.163Z,100186.84
2023-02-15T17:38:30.534Z,100190.66
2023-02-15T17:41:02.016Z,100190.41
2023-02-15T17:43:33.678Z,100181.84
2023-02-15T17:46:04.961Z,100194.34
2023-02-15T17:48:38.714Z,100188.06
2023-02-15T17:51:13.754Z,100199.03
2023-02-15T17:54:04.400Z,100194.63
2023-02-15T17:56:39.540Z,100201.13
2023-02-15T17:59:12.898Z,100197.03
2023-02-15T18:02:09.794Z,100202.19
2023-02-15T18:04:59.034Z,100199.16
2023-02-15T18:07:48.501Z,100198.88
2023-02-15T18:10:39.503Z,100202.22
2023-02-15T18:13:10.997Z,100205.97
2023-02-15T18:15:42.386Z,100214.47
2023-02-15T18:18:15.195Z,100222.31
2023-02-15T18:20:46.688Z,100216.81
2023-02-15T18:23:17.869Z,100210.25
2023-02-15T18:25:49.412Z,100219.59
2023-02-15T18:28:20.544Z,100214.38
2023-02-15T18:30:53.847Z,100211.81
2023-02-15T18:33:46.254Z,100217.84
2023-02-15T18:36:24.745Z,100214.53
2023-02-15T18:38:56.664Z,100229.91
2023-02-15T18:41:31.180Z,100244.25
2023-02-15T18:44:03.136Z,100253.31
2023-02-15T18:46:34.291Z,100245.84
2023-02-15T18:49:05.686Z,100237.09
2023-02-15T18:51:41.429Z,100244.75
2023-02-15T18:54:22.016Z,100247.41
2023-02-15T18:57:03.111Z,100236.06
2023-02-15T18:59:34.289Z,100244.78
2023-02-15T19:02:05.557Z,100253.56
2023-02-15T19:04:36.489Z,100258.34
2023-02-15T19:07:07.574Z,100265.94
2023-02-15T19:09:38.720Z,100259.97
2023-02-15T19:12:14.113Z,100255.69
2023-02-15T19:14:45.574Z,100265.28
2023-02-15T19:17:22.247Z,100270.72
2023-02-15T19:19:54.645Z,100263.31
2023-02-15T19:22:36.354Z,100264.41
2023-02-15T19:25:08.527Z,100249.75
2023-02-15T19:27:39.803Z,100262.22
2023-02-15T19:30:31.634Z,100270.66
2023-02-15T19:33:04.209Z,100264.59
2023-02-15T19:35:37.480Z,100245.16
2023-02-15T19:38:14.058Z,100259.09
2023-02-15T19:40:45.784Z,100253.44
2023-02-15T19:43:23.190Z,100273.84
2023-02-15T19:45:56.493Z,100273.34
2023-02-15T19:48:27.763Z,100282.31
2023-02-15T19:50:59.314Z,100277.22
2023-02-15T19:53:31.837Z,100283.47
2023-02-15T19:56:03.201Z,100278.06
2023-02-15T19:58:35.227Z,100275.81
2023-02-15T20:01:06.816Z,100272.13
2023-02-15T20:03:38.339Z,100267.97
2023-02-15T20:06:09.021Z,100273.16
2023-02-15T20:08:40.223Z,100254.50
2023-02-15T20:11:13.489Z,100273.19
2023-02-15T20:13:44.497Z,100281.97
2023-02-15T20:16:15.842Z,100271.09
2023-02-15T20:18:47.937Z,100281.00
2023-02-15T20:21:19.631Z,100280.16
2023-02-15T20:23:50.689Z,100291.16
2023-02-15T20:26:22.524Z,100271.72
2023-02-15T20:28:53.083Z,100280.22
2023-02-15T20:31:24.567Z,100282.69
2023-02-15T20:33:55.519Z,100284.06
2023-02-15T20:36:27.005Z,100276.59
2023-02-15T20:38:59.401Z,100285.84
2023-02-15T20:41:41.582Z,100283.94
2023-02-15T20:44:26.952Z,100283.16
2023-02-15T20:47:00.686Z,100286.78
2023-02-15T20:49:32.036Z,100280.56
2023-02-15T20:52:04.081Z,100275.38
2023-02-15T20:54:36.961Z,100267.63
2023-02-15T20:57:08.515Z,100267.34
2023-02-15T20:59:39.889Z,100254.16
2023-02-15T21:02:28.086Z,100261.50
2023-02-15T21:04:59.550Z,100261.75
2023-02-15T21:07:30.194Z,100268.53
2023-02-15T21:10:01.734Z,100276.06
2023-02-15T21:12:33.858Z,100261.91
2023-02-15T21:15:04.842Z,100274.47
2023-02-15T21:17:35.845Z,100275.59
2023-02-15T21:20:07.218Z,100251.78
2023-02-15T21:22:38.619Z,100278.81
2023-02-15T21:25:12.021Z,100260.75
2023-02-15T21:27:43.841Z,100266.69
2023-02-15T21:30:19.686Z,100266.34
2023-02-15T21:32:51.062Z,100260.53
2023-02-15T21:35:23.026Z,100249.22
2023-02-15T21:37:55.274Z,100259.13
2023-02-15T21:40:30.212Z,100248.34
2023-02-15T21:43:19.352Z,100242.44
2023-02-15T21:46:08.377Z,100252.22
2023-02-15T21:48:40.538Z,100240.47
2023-02-15T21:51:29.877Z,100245.06
2023-02-15T21:54:01.286Z,100239.19
2023-02-15T21:56:32.488Z,100241.16
2023-02-15T21:59:03.790Z,100239.72
2023-02-15T22:01:35.248Z,100240.91
2023-02-15T22:04:06.610Z,100234.88
2023-02-15T22:06:38.222Z,100221.03
2023-02-15T22:09:20.735Z,100235.34
2023-02-15T22:11:52.704Z,100246.97
2023-02-15T22:14:39.926Z,100237.94
2023-02-15T22:17:36.064Z,100227.47
2023-02-15T22:20:18.720Z,100238.63
2023-02-15T22:22:50.868Z,100231.69
2023-02-15T22:25:27.408Z,100239.00
2023-02-15T22:27:58.950Z,100227.22
2023-02-15T22:30:31.270Z,100227.72
2023-02-15T22:33:03.142Z,100223.63
2023-02-15T22:35:36.141Z,100213.84
2023-02-15T22:38:07.717Z,100213.22
2023-02-15T22:40:39.244Z,100223.72
2023-02-15T22:43:22.258Z,100213.47
2023-02-15T22:45:53.474Z,100211.88
2023-02-15T22:48:24.556Z,100206.47
2023-02-15T22:50:56.171Z,100201.94
2023-02-15T22:53:27.717Z,100208.91
2023-02-15T22:55:59.978Z,100206.56
2023-02-15T22:58:31.609Z,100203.78
2023-02-15T23:01:03.947Z,100213.78
2023-02-15T23:03:35.353Z,100201.13
2023-02-15T23:06:06.838Z,100212.03
2023-02-15T23:08:38.183Z,100194.00
2023-02-15T23:11:12.806Z,100212.59
2023-02-15T23:13:44.001Z,100208.25
2023-02-15T23:16:19.602Z,100204.44
2023-02-15T23:18:51.483Z,100199.25
2023-02-15T23:21:24.124Z,100197.03
2023-02-15T23:23:58.078Z,100197.13
2023-02-15T23:26:32.520Z,100184.31
2023-02-15T23:29:05.611Z,100196.13
2023-02-15T23:31:46.840Z,100183.63
2023-02-15T23:34:24.319Z,100186.03
2023-02-15T23:36:55.856Z,100175.50
2023-02-15T23:39:46.053Z,100175.09
2023-02-15T23:42:29.363Z,100162.28
2023-02-15T23:45:00.476Z,100163.25
2023-02-15T23:47:56.049Z,100153.28
2023-02-15T23:50:33.006Z,100154.72
2023-02-15T23:53:05.677Z,100155.06
2023-02-15T23:55:43.124Z,100142.06
2023-02-15T23:58:26.293Z,100130.84
